KHFY

Details ICAO KHFY
Name Greenwood Muni
Region United States
Timezone America/Indiana/Indianapolis (UTC-4.0)
Plans Departing 11
Arriving 10
Stats Elevation 822 ft / 251 m (AMSL)
Location 39.627611° -86.088027°
Runways 1
Magnetic Variation 4.797° W
Sunrise 2018-05-23 10:25:06 UTC / 2018-05-23 06:25:06 Local
Sunset 2018-05-24 01:00:01 UTC / 2018-05-23 21:00:01 Local
Advertisement - Login to hide

Runways

ID Width Length Bearing (true) Bearing (mag) Surface Threshold Offset Overrun Length
01 75 ft / 23 m 4,909 ft / 1,496 m 7.62° 12.42° Asphalt 0 ft / 0 m 0 ft / 0 m
19 75 ft / 23 m 4,909 ft / 1,496 m 187.62° 192.42° Asphalt 0 ft / 0 m 0 ft / 0 m

Map

Weather


0- 5 10 15 20 25 30 35+ Temperature / ° C

Clouds and Precipitation
Forecast for 2018-05-23 12:00 UTC. Updated 4 hours ago

Ground ~20,000 ft ~40,000 ft Winds

METAR

KHFY 231535Z AUTO 04004KT 10SM CLR 22/16 A3018 RMK AO2 T02200155

TAF

Not found

Frequencies

Recorded 118.52 MHz AWOS 3
Approach 124.95 MHz INDIANAPOLIS APP/DEP
Unicom 123.00 MHz CTAF/UNICOM
Warning: Do not use this data for real-world aviation or navigation. No guarantee of current accuracy is given.